MyFlightRoute - Storm Chaser


To sort multiple columns, hold SHIFT key while clicking column header

ICAOVisibilityWindSpeedGustCeilingWeatherTempDew PointSpreadFlight CategoryMETAR
KABQ10.000 7.80-16.1023.9VFRKABQ 101052Z 00000KT 10SM CLR 08/M16 A3002 RMK AO2 SLP112 T00781161
KAMA10.009 3.30-2.205.5VFRKAMA 101053Z AUTO 30009KT 10SM CLR 03/M02 A2999 RMK AO2 SLP138 T00331022
KAPA10.004 -2.80-7.805VFRKAPA 101053Z 19004KT 10SM CLR M03/M08 A2994 RMK AO2 SLP147 T10281078
KASE10.005 -3.90-11.707.8VFRKASE 101053Z AUTO 22005KT 10SM CLR M04/M12 A3007 RMK AO2 SLP140 T10391117
KBFI10.001115 90005.600.005.6VFRKBFI 101053Z 23011G15KT 10SM BKN090 06/00 A3003 RMK AO2 SLP168 T00560000
KBFL8.000 12.203.308.9VFRKBFL 101054Z AUTO 00000KT 8SM CLR 12/03 A3003 RMK AO2 SLP164 T01220033
KBIL10.0013 6.10-8.9015VFRKBIL 101053Z 24013KT 10SM CLR 06/M09 A2979 RMK AO2 SLP086 T00611089
KBOI10.008 3.30-6.7010VFRKBOI 101053Z 14008KT 10SM CLR 03/M07 A2994 RMK AO2 SLP136 T00331067
KBUR10.003 13.908.905VFRKBUR 101053Z AUTO 08003KT 10SM CLR 14/09 A2991 RMK AO2 SLP116 T01390089 $
KBZN10.0010 -2.20-6.704.5VFRKBZN 101056Z AUTO 14010KT 10SM CLR M02/M07 A2982 RMK AO2 SLP104 T10221067
KCMA7.004 11.107.803.3VFRKCMA 101055Z AUTO 08004KT 7SM CLR 11/08 A2991 RMK AO2 SLP136 T01110078
KCNO8.000 11.709.402.3VFRKCNO 101053Z AUTO 00000KT 8SM CLR 12/09 A2993 RMK AO2 SLP129 T01170094
KCOS10.003 -1.70-9.407.7VFRKCOS 101054Z 07003KT 10SM CLR M02/M09 A2997 RMK AO2 SLP147 T10171094
KCPR10.003 -1.70-7.205.5VFRKCPR 101053Z 23003KT 10SM CLR M02/M07 A2990 RMK AO2 SLP128 T10171072
KCRQ7.003 60013.3011.701.6IFRKCRQ 101053Z AUTO 04003KT 7SM OVC006 13/12 A2990 RMK AO2 CIG 005V008 SLP123 T01330117
KDEN10.006 -1.10-7.806.7VFRKDEN 101053Z 19006KT 10SM CLR M01/M08 A2994 RMK AO2 SLP126 T10111078
KEGE10.003 -5.00-11.706.7VFRKEGE 101056Z AUTO 12003KT 10SM CLR M05/M12 A3011 RMK AO2 SLP208 T10501117 FZRANO PNO $
KELP10.009 13.90-17.2031.1VFRKELP 101051Z 36009KT 10SM CLR 14/M17 A2994 RMK AO2 SLP077 T01391172
KEMT10.004 20.0010.0010VFRKEMT 100251Z 23004KT 10SM CLR 20/10 A2992
KEUG10.0011 22006.702.204.5MVFRKEUG 101054Z AUTO 20011KT 10SM OVC022 07/02 A3024 RMK AO2 SLP242 T00670022
KFAT10.0011 10.603.307.3VFRKFAT 101053Z 30011KT 10SM CLR 11/03 A3004 RMK AO2 SLP169 T01060033 $
KFLG10.000 -2.20-13.3011.1VFRKFLG 101057Z AUTO 00000KT 10SM CLR M02/M13 A3006 RMK AO2 SLP123 T10221133 TSNO
KFMN10.000 -1.10-15.6014.5VFRKFMN 101053Z AUTO 00000KT 10SM CLR M01/M16 A3002 RMK AO2 SLP146 T10111156
KFUL10.000 13.9011.702.2VFRKFUL 101053Z AUTO 00000KT 10SM CLR 14/12 A2990 RMK AO2 SLP124 T01390117
KGCN10.000 -5.60-12.807.2VFRKGCN 101054Z AUTO 00000KT 10SM CLR M06/M13 A3006 RMK AO2 SLP139 T10561128 TSNO
KGEG10.001724 4.40-3.307.7VFRKGEG 101053Z 20017G24KT 10SM CLR 04/M03 A2981 RMK AO2 SLP101 T00441033
KGJT10.004 2.20-13.3015.5VFRKGJT 101053Z AUTO 12004KT 10SM CLR 02/M13 A3002 RMK AO2 SLP141 T00221133
KGPI10.008 70007.20-5.0012.2VFRKGPI 101055Z AUTO 27008KT 10SM OVC070 07/M05 A2973 RMK AO2 SLP068 T00721050
KHHR9.000 12.809.403.4VFRKHHR 101053Z AUTO 00000KT 9SM CLR 13/09 A2992 RMK AO2 SLP131 T01280094
KHLN10.003 0.60-7.808.4VFRKHLN 101053Z AUTO 26003KT 10SM CLR 01/M08 A2975 RMK AO2 SLP092 T00061078
KHND10.006 15.60-11.1026.7VFRKHND 101056Z AUTO 18006KT 10SM CLR 16/M11 A2988 RMK AO2 SLP115 T01561111
KIFP10.000 16.00-14.0030VFRKIFP 101115Z AUTO 00000KT 10SM CLR 16/M14 A2979 RMK AO2
KINS10.000 8.70-13.7022.4VFRKINS 101058Z AUTO 00000KT 10SM CLR 09/M14 A2990 RMK AO2 SLP094 T00871137 $
KJAC10.004 -8.30-10.602.3VFRKJAC 101056Z AUTO 04004KT 10SM CLR M08/M11 A3001 RMK AO2 SLP197 T10831106 FZRANO
KLAS10.003 15.60-8.9024.5VFRKLAS 101056Z 23003KT 10SM CLR 16/M09 A2985 RMK AO2 SLP089 T01561089
KLAX9.000 13.3010.602.7VFRKLAX 101053Z 00000KT 9SM CLR 13/11 A2992 RMK AO2 SLP129 T01330106
KLGB8.000 170013.3011.102.2MVFRKLGB 101123Z 00000KT 8SM BKN017 13/11 A2990 RMK AO2 T01330111
KLSV10.005 13.80-14.2028VFRKLSV 101058Z AUTO 07005KT 10SM CLR 14/M14 A2984 RMK AO2 SLP089 T01381142 $
KMFR0.000 0.000.000KMFR 101053Z AUTO A3022 RMK AO2 SLPNO PWINO PNO $
KMHV10.002227 15.00-1.0016VFRKMHV 101100Z AUTO 28022G27KT 10SM CLR 15/M01 A2997 RMK A01
KMRY10.007 160010.606.104.5MVFRKMRY 101054Z 30007KT 10SM OVC016 11/06 A3016 RMK AO2 SLP225 T01060061
KMSO10.004 100000.00-4.404.4VFRKMSO 101053Z AUTO 30004KT 10SM OVC100 00/M04 A2979 RMK AO2 SLP094 T00001044
KMYF7.000 70013.9011.702.2IFRKMYF 101053Z AUTO 00000KT 7SM OVC007 14/12 A2992 RMK AO2 SLP127 T01390117
KNYL10.004 17.800.0017.8VFRKNYL 101057Z AUTO 16004KT 10SM CLR 18/00 A2977 RMK AO2 SLP078 T01780000 $
KOAK10.0013 14009.405.603.8MVFRKOAK 101053Z 26013KT 10SM BKN014 09/06 A3013 RMK AO2 SLP201 T00940056
KOLM5.001520 2200LIGHT RAIN 4.401.702.7MVFRKOLM 101113Z AUTO 27015G20KT 5SM -RA BKN022 BKN026 OVC075 04/02 A3010 RMK AO2 RAB03 P0001 T00440017
KONT10.000 13.309.403.9VFRKONT 101053Z 00000KT 10SM CLR 13/09 A2991 RMK AO2 SLP118 T01330094
KOTH7.005 1300LIGHT RAIN 6.005.001MVFRKOTH 101108Z AUTO 15005KT 7SM -RA OVC013 06/05 A3029 RMK AO2 P0001
KOXR7.005 9.407.801.6VFRKOXR 101051Z AUTO 09005KT 7SM FEW012 09/08 A2991 RMK AO2 SLP127 T00940078
KPAE10.000 3000LIGHT RAIN 2.800.602.2MVFRKPAE 101109Z AUTO 00000KT 10SM -RA SCT013 BKN030 OVC038 03/01 A3003 RMK AO2 P0000 T00280006
KPDX10.001419 3100LIGHT RAIN 7.803.304.5VFRKPDX 101053Z 22014G19KT 10SM -RA SCT024 BKN031 BKN043 08/03 A3015 RMK AO2 RAE11B36 SLP207 P0000 T00780033
KPHX10.000 18.90-3.9022.8VFRKPHX 101051Z 00000KT 10SM CLR 19/M04 A2979 RMK AO2 SLP073 T01891039
KPOC10.005 18.0011.007VFRKPOC 100347Z 23005KT 10SM CLR 18/11 A2994 RMK LAST
KPRC10.009 6.70-11.1017.8VFRKPRC 101053Z AUTO 19009KT 10SM CLR 07/M11 A3000 RMK AO2 SLP103 T00671111
KPSC10.002636 8.30-0.608.9VFRKPSC 101053Z AUTO 22026G36KT 10SM CLR 08/M01 A2995 RMK AO2 PK WND 23036/1051 SLP142 T00831006
KPSP10.005 20.606.7013.9VFRKPSP 101053Z AUTO 26005KT 10SM CLR 21/07 A2979 RMK AO2 SLP085 T02060067
KRAL10.000 12.808.903.9VFRKRAL 101053Z AUTO 00000KT 10SM CLR 13/09 A2992 RMK AO2 SLP117 T01280089
KRDD10.000 7.805.002.8VFRKRDD 101053Z AUTO 00000KT 10SM CLR 08/05 A3006 RMK AO2 SLP175 T00780050
KRIV10.000 8.305.802.5VFRKRIV 101058Z AUTO 00000KT 10SM CLR 08/06 A2991 RMK AO2 SLP120 T00830058
KRNM10.000 7.205.002.2VFRKRNM 101053Z AUTO 00000KT 10SM CLR 07/05 A2991 RMK AO2 SLP119 T00720050
KRNO10.004 4.40-5.009.4VFRKRNO 101055Z 19004KT 10SM CLR 04/M05 A3009 RMK AO2 SLP160 T00441050 $
KSAC10.005 8.906.102.8VFRKSAC 101053Z AUTO VRB05KT 10SM CLR 09/06 A3007 RMK AO2 SLP181 T00890061
KSAN9.003 120016.7012.204.5MVFRKSAN 101051Z 23003KT 9SM OVC012 17/12 A2993 RMK AO2 SLP133 T01670122
KSBA10.000 11.704.407.3VFRKSBA 101053Z AUTO 00000KT 10SM CLR 12/04 A2989 RMK AO2 SLP120 T01170044
KSBD10.000 12.706.506.2VFRKSBD 101120Z AUTO 00000KT 10SM CLR 13/07 A2992 RMK AO2 T01270065
KSBP6.0014 MIST 8.306.701.6VFRKSBP 101056Z AUTO 30014KT 6SM BR CLR 08/07 A3004 RMK AO2 SLP173 T00830067
KSDM0.750 200MIST 13.3011.102.2LIFRKSDM 101125Z AUTO 00000KT 3/4SM BR VV002 13/11 A2990 RMK AO2 T01330111
KSEA10.001926 70005.601.104.5VFRKSEA 101053Z 22019G26KT 10SM FEW020 BKN070 06/01 A3002 RMK AO2 PK WND 22026/1051 SLP173 T00560011
KSEE10.000 70011.0010.001IFRKSEE 101115Z AUTO 300KT 10SM OVC007 11/10 A2991 RMK AO2
KSFO10.001925 10.005.005VFRKSFO 101056Z 27019G25KT 10SM FEW015 10/05 A3011 RMK AO2 PK WND 28027/0957 SLP197 T01000050
KSJC10.004 24007.803.903.9MVFRKSJC 101053Z AUTO 19004KT 10SM BKN024 08/04 A3014 RMK AO2 SLP207 T00780039
KSLC10.008 3.90-6.7010.6VFRKSLC 101054Z 11008KT 10SM CLR 04/M07 A3000 RMK AO2 SLP144 T00391067
KSMF10.009 8.905.603.3VFRKSMF 101053Z 14009KT 10SM CLR 09/06 A3006 RMK AO2 SLP177 T00890056
KSMO10.000 12.809.403.4VFRKSMO 101051Z AUTO 00000KT 10SM CLR 13/09 A2992 RMK AO2 SLP131 T01280094
KSMX4.006 1000MIST 6.705.601.1MVFRKSMX 101051Z AUTO 31006KT 4SM BR OVC010 07/06 A3004 RMK AO2 SLP177 T00670056
KSNA9.000 14.4011.702.7VFRKSNA 101053Z 00000KT 9SM CLR 14/12 A2991 RMK AO2 SLP126 T01440117
KSUN10.0010 0.00-7.007VFRKSUN 101115Z AUTO 32010KT 10SM CLR 00/M07 A2997 RMK AO2 TSNO
KTOA10.005 16.0012.004VFRKTOA 100255Z 27005KT 10SM SKC 16/12 A2992
KTPH10.0011 6.10-16.1022.2VFRKTPH 101056Z AUTO 36011KT 10SM CLR 06/M16 A3003 RMK AO2 SLP130 T00611161
KTUS10.005 14.40-11.1025.5VFRKTUS 101053Z 15005KT 10SM CLR 14/M11 A2992 RMK AO2 SLP092 T01441111
KVCV10.0010 0.000.000VFRKVCV 100248Z 26010KT 10SM SKC A2995
KVGT10.006 15.00-7.8022.8VFRKVGT 101053Z AUTO 33006KT 10SM CLR 15/M08 A2981 RMK AO2 SLP094 T01501078
KVNY10.000 13.908.305.6VFRKVNY 101051Z AUTO 00000KT 10SM CLR 14/08 A2991 RMK AO2 SLP119 T01390083
KWHP10.004 20.0010.0010VFRKWHP 100250Z 10004KT 10SM SKC 20/10 A2994
KWJF10.0013 15.000.0015VFRKWJF 101056Z AUTO 26013KT 10SM CLR 15/00 A2998 RMK AO2 SLP137 T01500000
KYKM10.006 75007.20-1.708.9VFRKYKM 101053Z AUTO 20006KT 10SM FEW060 BKN075 OVC085 07/M02 A2990 RMK AO2 SLP127 T00721017